Time;durP1;ratioP1;P1;durP2;ratioP2;P2;SDS_P1;SDS_P2;PMS_P1;PMS_P2;Temp;Humidity;BMP_temperature;BMP_pressure;BME280_temperature;BME280_humidity;BME280_pressure;Samples;Min_cycle;Max_cycle;Signal;HPM_P1;HPM_P2
2021/10/07 00:02:16;;;;;;;6.97;3.08;;;;;;;11.04;nan;101278.19;5071308;28;20033;-77
2021/10/07 00:04:41;;;;;;;5.57;2.50;;;;;;;11.04;nan;101280.84;5071157;28;20038;-75
2021/10/07 00:07:07;;;;;;;4.70;2.60;;;;;;;10.97;nan;101282.38;5071361;28;20063;-75
2021/10/07 00:09:33;;;;;;;5.50;2.90;;;;;;;10.99;nan;101278.59;5071754;28;20060;-77
2021/10/07 00:11:59;;;;;;;4.75;2.53;;;;;;;10.94;nan;101280.81;5072735;28;20188;-77
2021/10/07 00:14:24;;;;;;;5.88;2.55;;;;;;;10.95;nan;101287.78;5053305;28;20043;-78
2021/10/07 00:16:50;;;;;;;3.42;2.45;;;;;;;11.03;nan;101292.38;5071941;28;20029;-78
2021/10/07 00:19:15;;;;;;;6.82;3.08;;;;;;;11.05;nan;101288.63;5071896;28;20036;-77
2021/10/07 00:21:41;;;;;;;5.70;2.53;;;;;;;11.07;nan;101283.22;5072367;28;20307;-78
2021/10/07 00:24:09;;;;;;;8.18;2.72;;;;;;;11.09;nan;101278.63;5052303;28;20037;-77
2021/10/07 00:26:40;;;;;;;4.10;2.40;;;;;;;11.10;nan;101285.56;5052824;28;20056;-77
2021/10/07 00:31:58;;;;;;;9.43;3.00;;;;;;;11.05;nan;101274.56;5071140;28;20550;-78
2021/10/07 00:39:44;;;;;;;6.10;3.17;;;;;;;11.09;nan;101275.16;5071811;28;20028;-75
2021/10/07 00:42:10;;;;;;;8.07;3.35;;;;;;;11.05;nan;101277.22;5070902;28;20028;-77
2021/10/07 00:44:39;;;;;;;6.97;3.40;;;;;;;11.10;nan;101284.75;5070510;28;20044;-77
2021/10/07 00:47:05;;;;;;;5.30;3.00;;;;;;;11.03;nan;101282.63;5059901;28;20037;-77
2021/10/07 00:49:38;;;;;;;6.40;3.35;;;;;;;11.09;nan;101280.44;5071181;28;20040;-77
2021/10/07 00:52:04;;;;;;;5.65;3.15;;;;;;;10.98;nan;101287.50;5071331;28;20033;-75
2021/10/07 00:54:30;;;;;;;4.50;3.10;;;;;;;10.97;nan;101287.66;5071053;28;20036;-74
2021/10/07 00:56:56;;;;;;;7.05;3.60;;;;;;;10.96;nan;101289.44;5070859;28;20063;-75
2021/10/07 00:59:23;;;;;;;7.00;4.10;;;;;;;11.08;nan;101295.47;5070587;28;20071;-77
2021/10/07 01:01:48;;;;;;;6.68;3.63;;;;;;;11.06;nan;101300.09;5070741;28;20033;-78
2021/10/07 01:04:14;;;;;;;6.93;3.72;;;;;;;11.09;nan;101305.09;5069922;28;20031;-75
2021/10/07 01:06:42;;;;;;;7.82;3.90;;;;;;;11.09;nan;101302.44;5070288;28;20033;-75
2021/10/07 01:09:08;;;;;;;6.07;3.60;;;;;;;11.06;nan;101297.44;5052912;28;20570;-75
2021/10/07 01:11:34;;;;;;;6.60;3.47;;;;;;;11.02;nan;101304.78;5053312;28;20041;-77
2021/10/07 01:14:00;;;;;;;7.10;4.30;;;;;;;11.00;nan;101304.09;5071518;28;20040;-77
2021/10/07 01:16:25;;;;;;;5.10;3.25;;;;;;;10.93;nan;101299.47;5074009;28;20426;-77
2021/10/07 01:18:51;;;;;;;7.20;3.88;;;;;;;10.86;nan;101301.81;5070485;28;20047;-78
2021/10/07 01:21:18;;;;;;;9.82;4.82;;;;;;;10.91;nan;101304.06;5070387;28;20066;-77
2021/10/07 01:23:45;;;;;;;7.68;4.22;;;;;;;10.88;nan;101299.06;5069838;28;20369;-78
2021/10/07 01:26:13;;;;;;;7.40;4.55;;;;;;;10.92;nan;101289.88;5069670;28;20094;-77
2021/10/07 01:28:40;;;;;;;9.75;4.85;;;;;;;10.94;nan;101301.13;5052831;28;20452;-78
2021/10/07 01:31:06;;;;;;;8.75;4.80;;;;;;;10.89;nan;101304.19;5071567;28;20052;-78
2021/10/07 01:33:32;;;;;;;7.13;4.30;;;;;;;10.82;nan;101300.41;5060866;28;20064;-78
2021/10/07 01:35:57;;;;;;;6.70;4.47;;;;;;;10.82;nan;101301.25;5072977;28;20044;-78
2021/10/07 01:38:22;;;;;;;8.65;4.47;;;;;;;10.74;nan;101303.72;5057713;28;20036;-78
2021/10/07 01:40:48;;;;;;;8.25;4.60;;;;;;;10.75;nan;101305.41;5069681;28;20037;-77
2021/10/07 01:43:13;;;;;;;8.88;4.68;;;;;;;10.70;nan;101302.34;5069639;28;20040;-78
2021/10/07 01:45:39;;;;;;;10.15;4.40;;;;;;;10.68;nan;101301.63;5069004;28;20036;-78
2021/10/07 01:48:05;;;;;;;8.48;5.07;;;;;;;10.70;nan;101301.47;5069558;28;20058;-78
2021/10/07 01:50:31;;;;;;;6.00;4.13;;;;;;;10.66;nan;101302.75;5071890;28;20032;-77
2021/10/07 01:52:56;;;;;;;8.40;4.70;;;;;;;10.67;nan;101307.03;5069868;28;20052;-78
2021/10/07 01:55:22;;;;;;;6.75;4.70;;;;;;;10.67;nan;101305.22;5070277;28;20436;-78
2021/10/07 01:57:47;;;;;;;6.68;3.88;;;;;;;10.67;nan;101310.53;5069641;28;20043;-78
2021/10/07 02:00:13;;;;;;;7.05;4.60;;;;;;;10.65;nan;101309.81;5068280;28;20032;-78
2021/10/07 02:02:39;;;;;;;6.00;4.40;;;;;;;10.68;nan;101312.22;5069643;28;20121;-78
2021/10/07 02:05:05;;;;;;;6.57;4.30;;;;;;;10.68;nan;101314.00;5073942;28;20124;-77
2021/10/07 02:07:31;;;;;;;9.27;4.75;;;;;;;10.66;nan;101319.44;5056554;28;20032;-78
2021/10/07 02:09:56;;;;;;;8.85;5.40;;;;;;;10.76;nan;101320.31;5050290;28;20531;-75
2021/10/07 02:12:21;;;;;;;7.63;5.25;;;;;;;10.72;nan;101316.25;5068769;28;20100;-78
2021/10/07 02:14:47;;;;;;;9.38;5.50;;;;;;;10.72;nan;101315.41;5070305;28;20074;-75
2021/10/07 02:17:12;;;;;;;6.68;5.30;;;;;;;10.73;nan;101307.34;5050953;28;20455;-78
2021/10/07 02:19:37;;;;;;;10.95;5.53;;;;;;;10.69;nan;101313.88;5078914;28;20400;-78
2021/10/07 02:22:03;;;;;;;8.32;5.32;;;;;;;10.74;nan;101316.13;5069841;28;20068;-78
2021/10/07 02:24:29;;;;;;;9.27;5.10;;;;;;;10.71;nan;101319.03;5069558;28;20036;-78
2021/10/07 02:26:54;;;;;;;6.35;4.85;;;;;;;10.69;nan;101316.53;5051440;28;20032;-78
2021/10/07 02:29:20;;;;;;;6.45;4.40;;;;;;;10.66;nan;101319.44;5071577;28;20036;-78
2021/10/07 02:31:45;;;;;;;5.90;4.45;;;;;;;10.69;nan;101323.63;5052441;28;20071;-78
2021/10/07 02:34:10;;;;;;;6.60;4.70;;;;;;;10.61;nan;101327.78;5071274;28;20163;-78
2021/10/07 02:36:36;;;;;;;6.63;4.70;;;;;;;10.64;nan;101331.97;5069554;28;20090;-77
2021/10/07 02:39:03;;;;;;;7.70;4.68;;;;;;;10.64;nan;101321.38;5052003;28;20170;-77
2021/10/07 02:41:28;;;;;;;8.15;5.43;;;;;;;10.67;nan;101329.03;5069538;28;20025;-78
2021/10/07 02:43:53;;;;;;;5.35;4.47;;;;;;;10.65;nan;101336.25;5068740;28;20033;-79
2021/10/07 02:46:19;;;;;;;8.00;5.22;;;;;;;10.62;nan;101340.00;5051146;28;20045;-78
2021/10/07 02:48:44;;;;;;;6.20;4.38;;;;;;;10.66;nan;101337.97;5071195;28;20036;-78
2021/10/07 02:51:10;;;;;;;6.78;5.30;;;;;;;10.74;nan;101332.00;5071038;28;20176;-78
2021/10/07 02:53:37;;;;;;;7.10;5.18;;;;;;;10.74;nan;101337.28;5071739;28;20064;-78
2021/10/07 02:56:04;;;;;;;7.30;4.55;;;;;;;10.70;nan;101349.09;5051375;28;20124;-78
2021/10/07 02:58:29;;;;;;;6.53;4.38;;;;;;;10.66;nan;101339.78;5051534;28;20048;-78
2021/10/07 03:00:55;;;;;;;7.32;5.10;;;;;;;10.70;nan;101346.44;5071750;28;20130;-78
2021/10/07 03:03:20;;;;;;;6.25;4.78;;;;;;;10.73;nan;101349.69;5052760;28;20666;-78
2021/10/07 03:05:46;;;;;;;8.05;5.13;;;;;;;10.76;nan;101353.88;5050121;28;20048;-78
2021/10/07 03:08:12;;;;;;;7.93;6.07;;;;;;;10.77;nan;101359.03;5070422;28;20032;-78
2021/10/07 03:10:37;;;;;;;8.90;5.78;;;;;;;10.78;nan;101354.56;5069802;28;20047;-78
2021/10/07 03:13:02;;;;;;;7.00;5.18;;;;;;;10.70;nan;101359.66;5056715;28;20424;-78
2021/10/07 03:15:27;;;;;;;8.10;4.80;;;;;;;10.69;nan;101358.00;5059020;28;20231;-78
2021/10/07 03:17:53;;;;;;;6.15;4.97;;;;;;;10.67;nan;101355.50;5055828;28;20037;-78
2021/10/07 03:20:18;;;;;;;7.90;5.07;;;;;;;10.70;nan;101359.66;5074089;28;20044;-78
2021/10/07 03:22:44;;;;;;;10.30;6.07;;;;;;;10.68;nan;101359.81;5056174;28;20586;-78
2021/10/07 03:25:10;;;;;;;8.20;6.32;;;;;;;10.65;nan;101361.88;5056514;28;20043;-78
2021/10/07 03:27:35;;;;;;;7.20;4.40;;;;;;;10.65;nan;101368.00;5056401;28;20489;-78
2021/10/07 03:30:02;;;;;;;8.77;4.80;;;;;;;10.69;nan;101366.78;5056790;28;20040;-78
2021/10/07 03:32:27;;;;;;;6.68;4.95;;;;;;;10.69;nan;101358.84;5073736;28;20036;-78
2021/10/07 03:34:53;;;;;;;7.57;4.90;;;;;;;10.67;nan;101360.78;5074642;28;20041;-78
2021/10/07 03:37:18;;;;;;;6.38;4.60;;;;;;;10.69;nan;101366.78;5056175;28;20041;-78
2021/10/07 03:39:44;;;;;;;8.38;5.25;;;;;;;10.73;nan;101360.25;5054723;28;20405;-75
2021/10/07 03:42:10;;;;;;;8.68;5.65;;;;;;;10.73;nan;101368.19;5053234;28;20455;-78
2021/10/07 03:44:35;;;;;;;8.73;5.05;;;;;;;10.70;nan;101379.06;5072808;28;20028;-78
2021/10/07 03:47:01;;;;;;;7.38;4.43;;;;;;;10.66;nan;101380.28;5053718;28;20033;-75
2021/10/07 03:49:26;;;;;;;6.30;4.55;;;;;;;10.65;nan;101380.41;5072505;28;20044;-76
2021/10/07 03:51:52;;;;;;;6.15;4.63;;;;;;;10.65;nan;101389.16;5071384;28;20032;-77
2021/10/07 03:54:17;;;;;;;7.07;4.78;;;;;;;10.70;nan;101394.06;5071142;28;20037;-76
2021/10/07 03:56:42;;;;;;;6.05;4.50;;;;;;;10.71;nan;101396.59;5076576;28;20067;-77
2021/10/07 03:59:08;;;;;;;6.35;4.95;;;;;;;10.72;nan;101387.66;5053128;28;20036;-76
2021/10/07 04:01:33;;;;;;;7.57;5.00;;;;;;;10.74;nan;101388.38;5053307;28;20092;-76
2021/10/07 04:03:58;;;;;;;6.75;4.60;;;;;;;10.76;nan;101389.09;5053710;28;20167;-76
2021/10/07 04:06:24;;;;;;;11.27;7.10;;;;;;;10.84;nan;101394.56;5071238;28;20382;-75
2021/10/07 04:08:49;;;;;;;9.15;6.63;;;;;;;10.86;nan;101390.94;5071873;28;20166;-76
2021/10/07 04:11:15;;;;;;;10.18;7.13;;;;;;;10.82;nan;101398.28;5070332;28;20121;-76
2021/10/07 04:13:40;;;;;;;9.38;5.95;;;;;;;10.80;nan;101406.38;5080034;28;20408;-75
2021/10/07 04:16:06;;;;;;;7.20;5.80;;;;;;;10.78;nan;101410.13;5070902;28;20075;-76
2021/10/07 04:18:31;;;;;;;9.13;5.97;;;;;;;10.80;nan;101408.19;5071512;28;20036;-76
2021/10/07 04:20:56;;;;;;;10.38;5.95;;;;;;;10.74;nan;101406.91;5053770;28;20146;-75
2021/10/07 04:23:22;;;;;;;7.53;5.50;;;;;;;10.73;nan;101407.88;5052421;28;20025;-76
2021/10/07 04:25:47;;;;;;;8.75;6.97;;;;;;;10.81;nan;101405.41;5052895;28;20060;-76
2021/10/07 04:28:12;;;;;;;8.98;6.30;;;;;;;10.78;nan;101416.25;5055201;28;20067;-76
2021/10/07 04:30:39;;;;;;;8.80;6.70;;;;;;;10.79;nan;101407.34;5053441;28;20032;-76
2021/10/07 04:33:07;;;;;;;8.32;6.60;;;;;;;10.77;nan;101411.94;5071904;28;20584;-76
2021/10/07 04:35:33;;;;;;;8.35;5.85;;;;;;;10.78;nan;101410.13;5070608;28;20157;-76
2021/10/07 04:37:59;;;;;;;8.25;6.00;;;;;;;10.76;nan;101409.41;5071406;28;20036;-76
2021/10/07 04:40:25;;;;;;;8.95;7.07;;;;;;;10.83;nan;101415.88;5052853;28;20041;-75
2021/10/07 04:42:50;;;;;;;10.27;6.72;;;;;;;10.77;nan;101411.94;5052970;28;20036;-76
2021/10/07 04:45:16;;;;;;;10.20;6.55;;;;;;;10.74;nan;101411.34;5070647;28;20097;-76
2021/10/07 04:47:42;;;;;;;9.40;6.85;;;;;;;10.72;nan;101414.13;5052844;28;20040;-76
2021/10/07 04:50:08;;;;;;;10.15;7.00;;;;;;;10.79;nan;101409.16;5053420;28;20078;-76
2021/10/07 04:52:33;;;;;;;10.38;6.90;;;;;;;10.80;nan;101416.97;5053077;28;20032;-76
2021/10/07 04:54:59;;;;;;;10.05;7.65;;;;;;;10.81;nan;101423.09;5071010;28;20048;-76
2021/10/07 04:57:25;;;;;;;10.30;8.02;;;;;;;10.82;nan;101424.75;5070271;28;20041;-76
2021/10/07 04:59:50;;;;;;;10.35;7.13;;;;;;;10.77;nan;101426.97;5071110;28;20690;-76
2021/10/07 05:02:15;;;;;;;7.65;6.05;;;;;;;10.72;nan;101430.00;5052427;28;20116;-76
2021/10/07 05:04:41;;;;;;;6.72;5.53;;;;;;;10.73;nan;101442.28;5071035;28;20439;-76
2021/10/07 05:07:06;;;;;;;8.02;6.13;;;;;;;10.75;nan;101437.69;5071228;28;20078;-76
2021/10/07 05:09:31;;;;;;;12.52;6.88;;;;;;;10.82;nan;101443.28;5071346;28;20127;-77
2021/10/07 05:11:57;;;;;;;8.30;6.75;;;;;;;10.76;nan;101436.72;5071029;28;20479;-76
2021/10/07 05:14:22;;;;;;;12.82;7.97;;;;;;;10.77;nan;101446.34;5072241;28;20094;-77
2021/10/07 05:16:47;;;;;;;11.02;7.15;;;;;;;10.72;nan;101447.69;5055123;28;20110;-76
2021/10/07 05:19:13;;;;;;;10.52;7.63;;;;;;;10.72;nan;101448.50;5053256;28;20033;-76
2021/10/07 05:21:38;;;;;;;9.13;7.07;;;;;;;10.73;nan;101452.03;5070844;28;20107;-76
2021/10/07 05:24:03;;;;;;;12.05;7.57;;;;;;;10.80;nan;101451.38;5051760;28;20040;-76
2021/10/07 05:26:29;;;;;;;10.68;6.47;;;;;;;10.81;nan;101453.03;5071319;28;20032;-76
2021/10/07 05:28:54;;;;;;;7.45;6.18;;;;;;;10.78;nan;101460.41;5071873;28;20035;-76
2021/10/07 05:31:20;;;;;;;10.50;7.38;;;;;;;10.82;nan;101467.09;5071773;28;20033;-76
2021/10/07 05:33:45;;;;;;;9.82;7.50;;;;;;;10.82;nan;101465.31;5052943;28;20079;-76
2021/10/07 05:36:10;;;;;;;9.43;7.22;;;;;;;10.75;nan;101463.28;5070144;28;20033;-76
2021/10/07 05:38:36;;;;;;;11.40;7.88;;;;;;;10.84;nan;101466.00;5071119;28;20066;-76
2021/10/07 05:41:01;;;;;;;9.50;6.63;;;;;;;10.88;nan;101468.38;5070602;28;20037;-76
2021/10/07 05:43:27;;;;;;;14.15;9.13;;;;;;;10.93;nan;101477.59;5052749;28;20513;-76
2021/10/07 05:45:52;;;;;;;10.98;8.13;;;;;;;10.90;nan;101475.22;5079072;28;20037;-76
2021/10/07 05:48:18;;;;;;;11.52;8.73;;;;;;;10.92;nan;101472.47;5070151;28;20047;-76
2021/10/07 05:50:43;;;;;;;11.32;8.35;;;;;;;10.93;nan;101466.19;5070433;28;20028;-76
2021/10/07 05:53:08;;;;;;;11.70;8.75;;;;;;;10.92;nan;101464.53;5070096;28;20063;-76
2021/10/07 05:55:34;;;;;;;11.57;8.60;;;;;;;10.94;nan;101466.06;5069876;28;20044;-76
2021/10/07 05:57:59;;;;;;;11.65;8.45;;;;;;;10.90;nan;101474.41;5051973;28;20036;-76
2021/10/07 06:00:24;;;;;;;9.23;7.47;;;;;;;10.88;nan;101481.63;5070209;28;20036;-76
2021/10/07 06:02:50;;;;;;;10.93;7.40;;;;;;;10.91;nan;101484.00;5079981;28;20032;-76
2021/10/07 06:05:15;;;;;;;12.85;8.52;;;;;;;10.86;nan;101483.56;5052452;28;20501;-76
2021/10/07 06:07:41;;;;;;;10.32;7.85;;;;;;;10.90;nan;101484.97;5053070;28;20036;-76
2021/10/07 06:10:07;;;;;;;10.13;7.75;;;;;;;10.90;nan;101482.34;5052789;28;20127;-76
2021/10/07 06:12:33;;;;;;;8.43;7.35;;;;;;;10.92;nan;101485.69;5052278;28;20039;-76
2021/10/07 06:14:59;;;;;;;8.93;6.68;;;;;;;10.91;nan;101482.19;5074751;28;20039;-76
2021/10/07 06:17:24;;;;;;;8.38;7.00;;;;;;;11.04;nan;101484.63;5070955;28;20040;-76
2021/10/07 06:19:54;;;;;;;12.05;7.75;;;;;;;11.07;nan;101489.66;5070686;28;20086;-76
2021/10/07 06:22:20;;;;;;;13.40;9.60;;;;;;;11.02;nan;101491.88;5053720;28;20558;-76
2021/10/07 06:24:45;;;;;;;14.35;9.02;;;;;;;11.01;nan;101504.28;5079442;28;20036;-76
2021/10/07 06:27:10;;;;;;;9.32;7.60;;;;;;;10.98;nan;101511.63;5056918;28;20058;-76
2021/10/07 06:29:36;;;;;;;11.88;8.35;;;;;;;10.97;nan;101512.59;5071066;28;20115;-75
2021/10/07 06:32:01;;;;;;;10.73;8.10;;;;;;;10.96;nan;101513.53;5070782;28;20029;-75
2021/10/07 06:34:26;;;;;;;9.45;8.38;;;;;;;11.00;nan;101510.50;5054220;28;20040;-76
2021/10/07 06:36:52;;;;;;;9.43;7.03;;;;;;;11.05;nan;101520.72;5071046;28;20028;-76
2021/10/07 06:39:17;;;;;;;7.30;6.07;;;;;;;11.11;nan;101516.69;5072250;28;20052;-75
2021/10/07 06:41:44;;;;;;;9.05;7.03;;;;;;;11.13;nan;101518.28;5072273;28;20051;-75
2021/10/07 06:44:10;;;;;;;9.13;7.40;;;;;;;11.16;nan;101520.66;5072138;28;20241;-76
2021/10/07 06:46:35;;;;;;;9.23;7.70;;;;;;;11.17;nan;101527.59;5067082;28;20028;-76
2021/10/07 06:49:00;;;;;;;9.50;7.30;;;;;;;11.20;nan;101532.66;5075602;28;20063;-76
2021/10/07 06:51:28;;;;;;;7.60;6.40;;;;;;;11.25;nan;101530.44;5062633;28;20033;-76
2021/10/07 06:53:55;;;;;;;7.05;6.05;;;;;;;11.29;nan;101522.22;5062405;28;20448;-76
2021/10/07 06:56:22;;;;;;;7.20;6.10;;;;;;;11.36;nan;101532.16;5062074;28;20039;-76
2021/10/07 06:58:52;;;;;;;6.20;5.60;;;;;;;11.36;nan;101542.75;5058672;28;20067;-75
2021/10/07 07:01:28;;;;;;;7.60;6.50;;;;;;;11.37;nan;101536.50;5057445;28;20032;-76
2021/10/07 07:03:55;;;;;;;8.73;7.18;;;;;;;11.40;nan;101538.88;5056972;28;20025;-76
2021/10/07 07:06:22;;;;;;;7.70;5.72;;;;;;;11.51;nan;101547.69;5074360;28;20043;-76
2021/10/07 07:08:48;;;;;;;7.25;6.47;;;;;;;11.58;nan;101562.91;5057884;28;20404;-76
2021/10/07 07:11:13;;;;;;;8.55;6.90;;;;;;;11.49;nan;101553.16;5058753;28;20060;-76
2021/10/07 07:13:40;;;;;;;9.02;6.45;;;;;;;11.48;nan;101554.94;5058125;28;20068;-75
2021/10/07 07:16:06;;;;;;;7.78;6.28;;;;;;;11.60;nan;101560.97;5061120;28;20469;-75
2021/10/07 07:18:31;;;;;;;8.65;6.15;;;;;;;11.62;nan;101564.34;5057241;28;20028;-76
2021/10/07 07:20:56;;;;;;;6.30;5.22;;;;;;;11.71;nan;101568.00;5074829;28;20546;-76
2021/10/07 07:23:22;;;;;;;8.02;5.40;;;;;;;11.69;nan;101564.66;5056423;28;20393;-78
2021/10/07 07:25:47;;;;;;;6.00;4.82;;;;;;;11.67;nan;101558.66;5057075;28;20404;-76
2021/10/07 07:28:13;;;;;;;6.20;5.53;;;;;;;11.69;nan;101562.00;5056288;28;20024;-76
2021/10/07 07:30:39;;;;;;;8.20;6.03;;;;;;;11.75;nan;101558.84;5056366;28;20056;-76
2021/10/07 07:33:04;;;;;;;7.80;5.85;;;;;;;11.82;nan;101554.66;5078834;28;20032;-76
2021/10/07 07:35:31;;;;;;;9.13;5.97;;;;;;;11.82;nan;101559.09;5081886;28;20072;-76
2021/10/07 07:37:58;;;;;;;7.45;5.20;;;;;;;12.01;nan;101561.00;5059462;28;20412;-76
2021/10/07 07:40:25;;;;;;;8.05;4.80;;;;;;;12.13;nan;101564.38;5058766;28;20520;-76
2021/10/07 07:42:50;;;;;;;5.57;4.38;;;;;;;12.11;nan;101553.94;5059179;28;20037;-76
2021/10/07 07:45:15;;;;;;;4.30;3.70;;;;;;;12.26;nan;101567.63;5062407;28;20032;-76
2021/10/07 07:47:42;;;;;;;6.47;3.28;;;;;;;12.47;nan;101571.00;5075472;28;20035;-76
2021/10/07 07:50:11;;;;;;;4.32;3.50;;;;;;;12.75;nan;101573.78;5045680;28;20131;-76
2021/10/07 07:52:37;;;;;;;5.32;3.80;;;;;;;12.91;nan;101574.06;5063979;28;20040;-75
2021/10/07 07:55:03;;;;;;;4.68;3.38;;;;;;;13.10;nan;101572.38;5055765;28;20049;-75
2021/10/07 07:57:28;;;;;;;4.10;3.67;;;;;;;13.13;nan;101566.75;5055965;28;20047;-75
2021/10/07 07:59:54;;;;;;;6.25;4.28;;;;;;;13.11;nan;101563.44;5056434;28;20032;-75
2021/10/07 08:02:19;;;;;;;4.90;4.20;;;;;;;13.03;nan;101568.59;5055474;28;20056;-75
2021/10/07 08:04:46;;;;;;;5.43;4.00;;;;;;;12.94;nan;101567.63;5056335;28;20409;-76
2021/10/07 08:07:13;;;;;;;6.35;4.88;;;;;;;13.02;nan;101575.75;5073131;28;20028;-76
2021/10/07 08:09:43;;;;;;;6.75;5.15;;;;;;;13.65;nan;101579.66;5059454;28;20033;-75
2021/10/07 08:12:12;;;;;;;8.63;5.65;;;;;;;14.68;nan;101588.31;5056239;28;20039;-75
2021/10/07 08:14:38;;;;;;;7.97;5.28;;;;;;;15.21;nan;101592.75;5078358;28;20040;-76
2021/10/07 08:17:03;;;;;;;6.30;4.80;;;;;;;15.15;nan;101585.38;5074590;28;20401;-76
2021/10/07 08:19:29;;;;;;;6.13;4.70;;;;;;;14.84;nan;101591.94;5055826;28;20127;-76
2021/10/07 08:21:54;;;;;;;5.93;4.40;;;;;;;14.55;nan;101594.03;5074691;28;20123;-75
2021/10/07 08:24:22;;;;;;;5.97;5.03;;;;;;;14.24;nan;101581.03;5056159;28;20559;-75
2021/10/07 08:26:48;;;;;;;6.05;4.10;;;;;;;14.15;nan;101596.06;5074176;28;20033;-75
2021/10/07 08:29:13;;;;;;;4.88;4.00;;;;;;;14.73;nan;101594.00;5060886;28;20040;-75
2021/10/07 08:31:39;;;;;;;6.15;3.88;;;;;;;16.45;nan;101603.81;5056324;28;20040;-75
2021/10/07 08:34:04;;;;;;;4.93;3.33;;;;;;;18.21;nan;101607.59;5057553;28;20032;-77
2021/10/07 08:36:32;;;;;;;4.10;3.20;;;;;;;19.53;nan;101618.13;5075577;28;20424;-77
2021/10/07 08:38:57;;;;;;;3.53;2.65;;;;;;;19.66;nan;101609.44;5074543;28;20040;-76
2021/10/07 08:41:23;;;;;;;5.65;4.05;;;;;;;19.67;nan;101613.78;5078682;28;20040;-77
2021/10/07 08:43:50;;;;;;;5.38;3.30;;;;;;;20.32;nan;101617.53;5073742;28;20500;-76
2021/10/07 08:46:17;;;;;;;5.03;3.17;;;;;;;20.36;nan;101611.59;5071156;28;20033;-74
2021/10/07 08:48:43;;;;;;;4.55;3.00;;;;;;;19.99;nan;101620.63;5055127;28;20434;-77
2021/10/07 08:51:08;;;;;;;;;;;;;;;19.88;nan;101605.03;5058161;28;20037;-77
2021/10/07 08:53:34;;;;;;;5.67;3.30;;;;;;;20.64;nan;101618.94;5052542;28;20016;-77
2021/10/07 08:56:01;;;;;;;;;;;;;;;20.03;nan;101613.88;5055764;28;20048;-77
2021/10/07 08:58:26;;;;;;;;;;;;;;;19.30;nan;101619.00;5072841;28;19955;-77
2021/10/07 09:00:51;;;;;;;6.00;4.45;;;;;;;18.23;nan;101604.72;5076971;28;19924;-77
2021/10/07 09:03:22;;;;;;;3.57;3.00;;;;;;;17.40;nan;101606.03;5053579;28;20780;-76
2021/10/07 09:05:48;;;;;;;4.97;3.53;;;;;;;16.87;nan;101602.06;5072641;28;20108;-77
2021/10/07 09:08:15;;;;;;;5.47;3.47;;;;;;;16.51;nan;101605.00;5074417;28;20033;-76
2021/10/07 09:10:47;;;;;;;4.38;3.22;;;;;;;16.23;nan;101601.75;5073226;28;20036;-77
2021/10/07 09:13:21;;;;;;;6.65;5.20;;;;;;;16.13;nan;101600.06;5077240;28;20096;-76
2021/10/07 09:15:55;;;;;;;6.03;4.15;;;;;;;15.98;nan;101601.69;5074453;28;20040;-76
2021/10/07 09:18:22;;;;;;;7.07;4.97;;;;;;;15.96;nan;101601.00;5072911;28;20501;-76
2021/10/07 09:20:49;;;;;;;7.05;5.03;;;;;;;15.89;nan;101602.63;5055547;28;20131;-76
2021/10/07 09:23:16;;;;;;;8.25;5.72;;;;;;;15.79;nan;101604.59;5071974;28;20035;-76
2021/10/07 09:26:11;;;;;;;6.03;4.90;;;;;;;15.38;nan;101602.50;5070201;28;20047;-76
2021/10/07 09:28:53;;;;;;;6.72;4.70;;;;;;;15.43;nan;101610.88;5059047;28;20195;-76
2021/10/07 09:31:32;;;;;;;7.63;5.13;;;;;;;15.64;nan;101612.34;5061408;28;20464;-76
2021/10/07 09:34:00;;;;;;;8.13;5.20;;;;;;;15.38;nan;101599.03;5063003;28;20079;-76
2021/10/07 09:36:27;;;;;;;5.35;4.30;;;;;;;15.34;nan;101603.81;5063270;28;20424;-76
2021/10/07 09:38:54;;;;;;;6.93;5.07;;;;;;;15.07;nan;101597.63;5044677;28;20036;-76
2021/10/07 09:41:24;;;;;;;7.57;5.10;;;;;;;15.06;nan;101597.78;5060776;28;20043;-76
2021/10/07 09:43:57;;;;;;;5.55;3.95;;;;;;;15.18;nan;101603.69;5061574;28;20157;-76
2021/10/07 09:46:41;;;;;;;6.63;4.68;;;;;;;15.25;nan;101591.41;5061329;28;20107;-76
2021/10/07 09:49:09;;;;;;;7.13;5.28;;;;;;;15.22;nan;101589.91;5044719;28;20036;-76
2021/10/07 09:51:41;;;;;;;8.35;4.80;;;;;;;15.24;nan;101587.94;5059583;28;20120;-76
2021/10/07 09:54:07;;;;;;;6.22;4.70;;;;;;;15.32;nan;101587.13;5061679;28;20429;-76
2021/10/07 09:56:32;;;;;;;9.25;5.80;;;;;;;14.78;nan;101587.25;5044660;28;20778;-76
2021/10/07 09:59:05;;;;;;;6.93;5.00;;;;;;;14.94;nan;101585.69;5064143;28;20116;-76
2021/10/07 10:01:30;;;;;;;6.95;5.10;;;;;;;15.14;nan;101597.03;5060500;28;20040;-76
2021/10/07 10:03:56;;;;;;;6.72;4.95;;;;;;;15.33;nan;101596.81;5063348;28;20039;-76
2021/10/07 10:06:21;;;;;;;5.72;4.05;;;;;;;15.32;nan;101603.13;5043374;28;20493;-76
2021/10/07 10:08:47;;;;;;;6.75;4.70;;;;;;;15.32;nan;101599.63;5061556;28;20094;-76
2021/10/07 10:11:13;;;;;;;5.68;4.60;;;;;;;15.22;nan;101600.56;5042260;28;20040;-76
2021/10/07 10:13:39;;;;;;;7.35;4.80;;;;;;;15.32;nan;101604.97;5066765;28;20032;-76
2021/10/07 10:16:05;;;;;;;5.72;4.43;;;;;;;15.29;nan;101601.63;5065304;28;20052;-76
2021/10/07 10:18:33;;;;;;;6.68;4.53;;;;;;;15.24;nan;101611.06;5064611;28;20085;-76
2021/10/07 10:21:02;;;;;;;6.18;4.18;;;;;;;15.30;nan;101607.78;5049211;28;20103;-76
2021/10/07 10:23:30;;;;;;;6.50;4.70;;;;;;;15.18;nan;101604.56;5061995;28;20032;-76
2021/10/07 10:26:22;;;;;;;5.78;4.30;;;;;;;15.24;nan;101613.75;5046202;28;20120;-76
2021/10/07 10:28:53;;;;;;;7.10;4.93;;;;;;;15.28;nan;101605.28;5043630;28;20465;-76
2021/10/07 10:31:33;;;;;;;6.55;5.45;;;;;;;15.10;nan;101614.31;5063082;28;20048;-76
2021/10/07 10:34:16;;;;;;;5.82;4.45;;;;;;;15.14;nan;101608.50;5049236;28;20450;-76
2021/10/07 10:36:53;;;;;;;7.60;5.13;;;;;;;15.21;nan;101611.41;5043481;28;20075;-75
2021/10/07 10:39:24;;;;;;;7.93;5.32;;;;;;;15.35;nan;101617.97;5048209;28;20037;-76
2021/10/07 10:41:51;;;;;;;;;;;;;;;15.25;nan;101616.25;5064531;28;20055;-76
2021/10/07 10:44:37;;;;;;;7.72;5.78;;;;;;;15.30;nan;101615.75;5063267;28;20002;-76
2021/10/07 10:47:05;;;;;;;6.13;4.05;;;;;;;15.37;nan;101611.47;5063785;28;20051;-75
2021/10/07 10:49:40;;;;;;;7.57;5.47;;;;;;;15.62;nan;101622.31;5064040;28;20674;-74
2021/10/07 10:52:28;;;;;;;6.63;5.13;;;;;;;15.58;nan;101615.63;5065849;28;20047;-76
2021/10/07 10:55:07;;;;;;;6.95;4.50;;;;;;;15.54;nan;101630.25;5063152;28;20078;-75
2021/10/07 10:57:44;;;;;;;5.22;3.95;;;;;;;15.43;nan;101618.03;5067675;28;20028;-75
2021/10/07 11:00:26;;;;;;;5.32;4.47;;;;;;;15.45;nan;101618.72;5044692;28;20140;-76
2021/10/07 11:02:54;;;;;;;6.35;5.10;;;;;;;15.46;nan;101615.06;5044954;28;20037;-75
2021/10/07 11:05:30;;;;;;;5.65;4.13;;;;;;;15.53;nan;101618.75;5066900;28;20064;-75
2021/10/07 11:08:11;;;;;;;6.18;4.55;;;;;;;15.76;nan;101616.44;5042315;28;20055;-76
2021/10/07 11:10:40;;;;;;;5.47;4.40;;;;;;;15.96;nan;101608.19;5066672;28;20409;-76
2021/10/07 11:13:12;;;;;;;6.03;4.22;;;;;;;15.79;nan;101615.28;5065384;28;20294;-75
2021/10/07 11:15:37;;;;;;;4.68;3.70;;;;;;;16.02;nan;101615.56;5060286;28;20048;-75
2021/10/07 11:18:02;;;;;;;4.75;3.50;;;;;;;15.98;nan;101616.84;5048386;28;20034;-75
2021/10/07 11:20:31;;;;;;;4.85;4.20;;;;;;;15.70;nan;101627.72;5060062;28;20433;-75
2021/10/07 11:23:17;;;;;;;4.50;3.55;;;;;;;15.58;nan;101624.44;5063869;28;20141;-75
2021/10/07 11:25:50;;;;;;;4.68;3.50;;;;;;;15.50;nan;101619.91;5046373;28;20083;-74
2021/10/07 11:28:20;;;;;;;3.08;2.10;;;;;;;15.57;nan;101622.78;5061881;28;20041;-74
2021/10/07 11:30:46;;;;;;;4.38;2.42;;;;;;;15.68;nan;101619.88;5066165;28;20040;-75
2021/10/07 11:33:12;;;;;;;3.03;2.20;;;;;;;15.73;nan;101627.41;5061803;28;20043;-74
2021/10/07 11:35:38;;;;;;;3.10;1.90;;;;;;;15.63;nan;101626.66;5066864;28;20187;-74
2021/10/07 11:38:09;;;;;;;2.50;2.00;;;;;;;15.99;nan;101621.19;5062208;28;20097;-75
2021/10/07 11:40:42;;;;;;;3.13;1.60;;;;;;;16.10;nan;101624.41;5064974;28;20066;-74
2021/10/07 11:43:11;;;;;;;2.10;1.52;;;;;;;15.95;nan;101625.19;5066331;28;20036;-75
2021/10/07 11:45:40;;;;;;;2.15;1.50;;;;;;;15.87;nan;101612.63;5062505;28;20453;-74
2021/10/07 11:48:08;;;;;;;4.10;2.53;;;;;;;15.96;nan;101627.69;5048952;28;20049;-74
2021/10/07 11:50:43;;;;;;;3.05;2.20;;;;;;;15.83;nan;101627.31;5064099;28;20062;-74